Hughes, AK

4:01 PM AKST on December 04, 2016 (GMT -0900)
Indian Mountain | | Change Station

Elev 1276 ft 65.99 °N, 153.70 °W | Updated 6 minutes ago

Clear
Clear
-13 °F
Feels Like -13 °F
N
2
Wind Variable Wind from SE

Today
High -- | Low -- °F
--% Chance of Precip.
Yesterday
High -- | Low -- °F
Precip. -- in
Pressure 30.90 in
Visibility 10.0 miles
Clouds Clear
Dew Point -20 °F
Humidity 72%
Rainfall 0.00 in
Snow Depth Not available.
11:14 AM 2:55 PM
Waxing Crescent, 27% visible
METAR PAIM 050055Z AUTO 13002KT 10SM CLR M25/M29 A3068 RMK AO2 SHSNB2350E0002 SLP463 T12501288
Pressure 30.90 in
Visibility 10.0 miles
Clouds Clear
Dew Point -20 °F
Humidity 72%
Rainfall 0.00 in
Snow Depth Not available.
11:14 AM 2:55 PM
Waxing Crescent, 27% visible
METAR PAIM 050055Z AUTO 13002KT 10SM CLR M25/M29 A3068 RMK AO2 SHSNB2350E0002 SLP463 T12501288

10-Day Weather Forecast

Almanac

Astronomy

Dec. 04, 2016 Rise Set
Actual Time
Civil Twilight
Nautical Twilight
Astronomical Twilight
Moon
Length of Visible Light
Length of Day
Tomorrow will be .
, % of the Moon is Illuminated

Today's Extremes

State Highs State Lows

Community

WunderPhotos

Upload Photos

1,955,733 photos uploaded!

WunderBlog® & News

Nearby

Air Quality

  Air Quality AQ Index Pollutant
Not available.

Snow Depth

Station Depth Elevation

Earthquake Activity

City Distance Mag. Time & Date
Minimum magnitude displayed is 2.5.

Coastal Water Temperatures

Place Temperature

Stations

Nearby Weather Stations

Station Location Temp. Windchill Dew Point Humidity Wind Precip. Elev Updated Type
                   

Watches & Warnings

There are currently no watches in effect.